createdAt,value
2018-04-08T00:00:07.535Z,18.37
2018-04-08T00:02:37.529Z,16.40
2018-04-08T00:05:07.496Z,18.07
2018-04-08T00:07:37.417Z,14.83
2018-04-08T00:10:07.378Z,15.00
2018-04-08T00:12:37.775Z,15.67
2018-04-08T00:15:08.015Z,16.23
2018-04-08T00:17:38.376Z,14.80
2018-04-08T00:20:08.374Z,15.60
2018-04-08T00:22:38.341Z,16.53
2018-04-08T00:25:08.256Z,15.93
2018-04-08T00:27:38.223Z,15.47
2018-04-08T00:30:08.141Z,17.43
2018-04-08T00:32:38.105Z,18.47
2018-04-08T00:35:08.033Z,15.23
2018-04-08T00:37:38.006Z,17.13
2018-04-08T00:40:10.157Z,14.70
2018-04-08T00:42:40.869Z,16.80
2018-04-08T00:45:10.783Z,15.30
2018-04-08T00:47:41.506Z,16.13
2018-04-08T00:50:12.223Z,14.47
2018-04-08T00:52:42.193Z,18.10
2018-04-08T00:55:12.117Z,16.20
2018-04-08T00:57:41.750Z,17.13
2018-04-08T01:00:11.391Z,21.20
2018-04-08T04:03:38.747Z,23.03
2018-04-08T04:06:08.607Z,22.27
2018-04-08T04:08:38.461Z,24.23
2018-04-08T04:11:08.372Z,25.53
2018-04-08T04:16:48.286Z,21.50
2018-04-08T04:19:35.766Z,22.87
2018-04-08T04:22:23.410Z,23.00
2018-04-08T04:25:11.012Z,25.67
2018-04-08T04:27:40.901Z,24.50
2018-04-08T04:30:10.745Z,22.40
2018-04-08T04:32:40.582Z,22.50
2018-04-08T04:35:10.494Z,23.80
2018-04-08T04:37:40.367Z,23.97
2018-04-08T04:40:10.238Z,21.67
2018-04-08T04:42:40.166Z,23.57
2018-04-08T04:45:10.016Z,21.60
2018-04-08T04:47:39.910Z,23.93
2018-04-08T04:50:09.880Z,22.30
2018-04-08T04:52:39.740Z,23.00
2018-04-08T04:55:09.635Z,22.90
2018-04-08T04:57:39.454Z,24.40
2018-04-08T05:00:10.182Z,23.63
2018-04-08T05:02:40.124Z,22.50
2018-04-08T05:05:10.004Z,22.00
2018-04-08T05:07:39.856Z,24.53
2018-04-08T05:10:09.790Z,24.73
2018-04-08T05:12:39.668Z,22.90
2018-04-08T05:15:09.676Z,24.33
2018-04-08T05:17:39.667Z,25.07
2018-04-08T05:20:09.523Z,22.60
2018-04-08T05:22:39.399Z,24.73
2018-04-08T05:25:09.350Z,24.17
2018-04-08T05:27:39.285Z,22.10
2018-04-08T05:30:09.277Z,23.03
2018-04-08T05:32:39.183Z,24.33
2018-04-08T05:35:09.880Z,22.40
2018-04-08T05:37:39.806Z,22.57
2018-04-08T05:40:11.798Z,22.13
2018-04-08T05:42:41.935Z,22.43
2018-04-08T05:45:11.867Z,23.83
2018-04-08T05:47:41.841Z,25.23
2018-04-08T05:50:12.573Z,23.00
2018-04-08T05:52:43.347Z,23.63
2018-04-08T05:55:13.241Z,24.23
2018-04-08T05:57:43.968Z,23.13
2018-04-08T06:00:14.061Z,22.87
2018-04-08T06:02:44.762Z,23.53
2018-04-08T06:05:14.660Z,22.70
2018-04-08T06:10:41.219Z,23.63
2018-04-08T06:13:20.894Z,22.63
2018-04-08T06:15:52.722Z,24.33
2018-04-08T06:18:22.536Z,22.67
2018-04-08T06:20:52.364Z,23.50
2018-04-08T06:23:22.194Z,23.07
2018-04-08T06:25:52.011Z,23.53
2018-04-08T06:28:21.932Z,21.93
2018-04-08T06:30:52.531Z,22.97
2018-04-08T06:33:22.341Z,24.53
2018-04-08T06:35:52.160Z,23.17
2018-04-08T06:38:22.089Z,24.10
2018-04-08T06:40:51.895Z,23.40
2018-04-08T06:46:30.432Z,23.70
2018-04-08T06:49:00.226Z,23.73
2018-04-08T06:51:30.091Z,21.90
2018-04-08T06:54:00.731Z,24.60
2018-04-08T06:56:30.561Z,23.10
2018-04-08T06:59:01.152Z,25.20
2018-04-08T07:01:31.028Z,23.00
2018-04-08T07:04:00.863Z,23.57
2018-04-08T07:06:30.709Z,22.87
2018-04-08T07:09:00.534Z,22.10
2018-04-08T07:11:30.341Z,21.27
2018-04-08T07:14:00.194Z,24.77
2018-04-08T07:16:30.074Z,21.63
2018-04-08T07:18:59.904Z,20.93
2018-04-08T07:21:29.730Z,20.90
2018-04-08T07:23:59.570Z,22.00
2018-04-08T07:26:30.177Z,22.30
2018-04-08T07:28:59.990Z,20.80
2018-04-08T07:31:29.818Z,20.70
2018-04-08T07:33:59.644Z,20.20
2018-04-08T07:36:29.473Z,20.63
2018-04-08T07:39:03.578Z,19.73
2018-04-08T07:41:34.165Z,20.03
2018-04-08T07:44:03.984Z,19.93
2018-04-08T07:46:33.798Z,19.80
2018-04-08T07:49:03.626Z,18.97
2018-04-08T07:51:33.445Z,18.53
2018-04-08T07:54:04.078Z,22.87
2018-04-08T07:56:34.660Z,20.80
2018-04-08T07:59:04.478Z,20.00
2018-04-08T08:01:34.370Z,18.20
2018-04-08T08:04:04.201Z,19.20
2018-04-08T08:06:34.020Z,17.60
2018-04-08T08:09:03.833Z,18.93
2018-04-08T08:11:34.420Z,18.60
2018-04-08T08:14:05.028Z,19.37
2018-04-08T08:16:34.837Z,19.73
2018-04-08T08:19:04.750Z,19.70
2018-04-08T08:21:34.575Z,21.33
2018-04-08T08:24:05.163Z,18.73
2018-04-08T08:26:34.995Z,17.33
2018-04-08T08:29:04.803Z,18.37
2018-04-08T08:31:34.634Z,19.13
2018-04-08T08:34:04.437Z,18.80
2018-04-08T08:36:34.272Z,17.47
2018-04-08T08:39:07.543Z,17.93
2018-04-08T08:41:37.371Z,18.00
2018-04-08T08:44:07.951Z,18.47
2018-04-08T08:46:37.762Z,17.07
2018-04-08T08:49:07.581Z,17.87
2018-04-08T08:51:37.389Z,18.07
2018-04-08T08:54:07.254Z,16.87
2018-04-08T08:56:37.837Z,17.40
2018-04-08T08:59:07.641Z,17.63
2018-04-08T09:01:37.461Z,17.30
2018-04-08T09:04:07.268Z,16.77
2018-04-08T09:06:37.128Z,17.50
2018-04-08T09:09:06.903Z,16.87
2018-04-08T09:11:36.790Z,16.63
2018-04-08T09:14:06.601Z,15.87
2018-04-08T09:16:36.418Z,16.07
2018-04-08T09:19:09.262Z,16.43
2018-04-08T09:21:41.921Z,16.53
2018-04-08T09:24:14.518Z,15.57
2018-04-08T09:26:44.380Z,17.90
2018-04-08T09:29:14.127Z,15.77
2018-04-08T09:31:43.949Z,14.90
2018-04-08T09:34:13.762Z,17.97
2018-04-08T09:36:43.582Z,15.30
2018-04-08T09:39:13.396Z,15.67
2018-04-08T09:41:43.969Z,14.10
2018-04-08T09:44:13.780Z,17.23
2018-04-08T09:46:43.603Z,16.10
2018-04-08T09:49:13.413Z,15.30
2018-04-08T09:51:43.231Z,14.53
2018-04-08T09:54:13.046Z,14.73
2018-04-08T09:56:42.881Z,15.53
2018-04-08T09:59:12.697Z,15.73
2018-04-08T10:01:47.742Z,14.00
2018-04-08T10:04:18.316Z,15.17
2018-04-08T10:06:48.139Z,14.67
2018-04-08T10:09:17.961Z,14.83
2018-04-08T10:11:47.787Z,14.70
2018-04-08T10:14:17.604Z,14.63
2018-04-08T10:16:48.209Z,14.73
2018-04-08T10:19:18.031Z,14.50
2018-04-08T10:21:47.854Z,14.07
2018-04-08T10:24:17.672Z,14.73
2018-04-08T10:26:47.520Z,14.43
2018-04-08T10:29:18.270Z,13.83
2018-04-08T10:31:48.042Z,14.20
2018-04-08T10:34:17.866Z,13.97
2018-04-08T10:36:48.467Z,13.47
2018-04-08T10:39:18.294Z,14.00
2018-04-08T10:41:48.099Z,14.37
2018-04-08T10:44:17.920Z,16.30
2018-04-08T10:46:48.030Z,13.70
2018-04-08T10:49:17.854Z,13.63
2018-04-08T10:51:47.662Z,15.80
2018-04-08T10:54:17.523Z,15.00
2018-04-08T10:56:47.282Z,14.50
2018-04-08T10:59:17.106Z,14.67
2018-04-08T11:01:46.918Z,15.13
2018-04-08T11:04:16.734Z,20.67
2018-04-08T11:06:47.311Z,15.60
2018-04-08T11:09:17.151Z,14.37
2018-04-08T11:11:46.959Z,15.43
2018-04-08T11:14:16.782Z,14.67
2018-04-08T11:16:46.598Z,15.70
2018-04-08T11:19:16.423Z,12.97
2018-04-08T11:21:46.234Z,14.57
2018-04-08T11:24:16.834Z,14.13
2018-04-08T11:26:46.643Z,13.53
2018-04-08T11:29:16.462Z,14.20
2018-04-08T11:31:46.282Z,14.20
2018-04-08T11:34:16.100Z,15.23
2018-04-08T11:36:45.904Z,14.77
2018-04-08T11:39:15.727Z,14.53
2018-04-08T11:41:45.540Z,13.77
2018-04-08T11:44:15.363Z,15.63
2018-04-08T11:46:45.165Z,14.37
2018-04-08T11:49:14.988Z,14.47
2018-04-08T11:51:44.806Z,13.60
2018-04-08T11:54:14.617Z,14.90
2018-04-08T11:56:45.198Z,15.40
2018-04-08T11:59:15.014Z,13.80
2018-04-08T12:01:44.843Z,12.57
2018-04-08T12:04:14.662Z,14.40
2018-04-08T12:06:44.477Z,11.97
2018-04-08T12:09:14.302Z,12.67
2018-04-08T12:11:44.123Z,12.03
2018-04-08T12:14:14.708Z,15.50
2018-04-08T12:16:44.514Z,13.33
2018-04-08T12:19:14.334Z,14.63
2018-04-08T12:21:44.157Z,26.77
2018-04-08T12:24:13.974Z,15.70
2018-04-08T12:26:43.795Z,13.77
2018-04-08T12:29:13.603Z,12.70
2018-04-08T12:31:43.438Z,11.73
2018-04-08T12:34:13.263Z,11.03
2018-04-08T12:36:43.846Z,13.87
2018-04-08T12:39:13.671Z,13.10
2018-04-08T12:41:43.484Z,11.97
2018-04-08T12:44:13.317Z,10.87
2018-04-08T12:46:43.123Z,11.37
2018-04-08T12:49:12.958Z,11.40
2018-04-08T12:51:43.549Z,12.60
2018-04-08T12:54:13.360Z,11.80
2018-04-08T12:56:43.190Z,12.43
2018-04-08T12:59:12.997Z,13.60
2018-04-08T13:01:42.822Z,11.20
2018-04-08T13:04:12.631Z,8.77
2018-04-08T13:06:42.435Z,11.27
2018-04-08T13:09:12.259Z,10.53
2018-04-08T13:11:42.081Z,21.90
2018-04-08T13:14:12.702Z,21.30
2018-04-08T13:16:42.489Z,11.17
2018-04-08T13:19:12.288Z,10.37
2018-04-08T13:21:42.111Z,10.93
2018-04-08T13:24:11.930Z,10.50
2018-04-08T13:26:41.749Z,10.03
2018-04-08T13:29:11.598Z,9.87
2018-04-08T13:31:41.382Z,10.20
2018-04-08T13:34:11.191Z,10.30
2018-04-08T13:36:41.005Z,10.43
2018-04-08T13:39:10.822Z,10.63
2018-04-08T13:41:40.636Z,10.23
2018-04-08T13:44:10.451Z,9.13
2018-04-08T13:46:40.257Z,9.73
2018-04-08T13:49:10.059Z,10.33
2018-04-08T13:51:39.893Z,11.77
2018-04-08T13:54:10.476Z,11.80
2018-04-08T13:56:40.279Z,9.20
2018-04-08T13:59:10.089Z,10.43
2018-04-08T14:01:39.902Z,11.23
2018-04-08T14:04:09.715Z,12.70
2018-04-08T14:06:39.564Z,11.67
2018-04-08T14:09:09.407Z,11.10
2018-04-08T14:11:39.181Z,11.00
2018-04-08T14:14:08.983Z,10.20
2018-04-08T14:16:38.803Z,11.87
2018-04-08T14:19:08.618Z,10.93
2018-04-08T14:21:38.431Z,10.37
2018-04-08T14:24:08.274Z,9.60
2018-04-08T14:26:38.075Z,9.63
2018-04-08T14:29:07.890Z,8.40
2018-04-08T14:31:37.689Z,8.77
2018-04-08T14:34:07.497Z,8.03
2018-04-08T14:36:37.316Z,8.83
2018-04-08T14:39:07.183Z,7.50
2018-04-08T14:41:36.977Z,8.37
2018-04-08T14:44:06.781Z,7.77
2018-04-08T14:46:37.350Z,8.30
2018-04-08T14:49:07.154Z,8.97
2018-04-08T14:51:36.983Z,8.13
2018-04-08T14:54:06.790Z,8.90
2018-04-08T14:56:36.599Z,7.10
2018-04-08T14:59:06.393Z,8.83
2018-04-08T15:01:36.214Z,8.17
2018-04-08T15:04:06.021Z,11.35
2018-04-08T15:06:35.838Z,8.00
2018-04-08T15:09:06.323Z,7.03
2018-04-08T15:11:36.917Z,7.67
2018-04-08T15:14:06.732Z,7.40
2018-04-08T15:16:36.509Z,8.30
2018-04-08T15:19:06.317Z,7.82
2018-04-08T15:21:36.146Z,9.67
2018-04-08T15:24:05.950Z,9.83
2018-04-08T15:26:35.759Z,8.63
2018-04-08T15:29:05.571Z,7.93
2018-04-08T15:31:35.400Z,7.47
2018-04-08T15:34:05.209Z,7.30
2018-04-08T15:36:35.020Z,9.60
2018-04-08T15:39:04.835Z,8.33
2018-04-08T15:41:34.633Z,6.87
2018-04-08T15:44:04.424Z,7.77
2018-04-08T15:46:34.999Z,7.17
2018-04-08T15:49:04.846Z,7.50
2018-04-08T15:51:34.736Z,8.30
2018-04-08T15:54:04.495Z,8.27
2018-04-08T15:56:35.076Z,7.80
2018-04-08T15:59:04.881Z,7.80
2018-04-08T16:01:34.687Z,7.90
2018-04-08T16:04:04.512Z,7.83
2018-04-08T16:06:34.353Z,8.00
2018-04-08T16:09:04.167Z,7.63
2018-04-08T16:11:34.260Z,9.40
2018-04-08T16:14:04.071Z,9.77
2018-04-08T16:16:33.895Z,7.67
2018-04-08T16:19:03.703Z,8.20
2018-04-08T16:21:33.524Z,7.93
2018-04-08T16:24:03.338Z,8.17
2018-04-08T16:26:33.142Z,9.20
2018-04-08T16:29:02.966Z,11.40
2018-04-08T16:31:32.773Z,8.50
2018-04-08T16:34:02.574Z,8.27
2018-04-08T16:36:32.385Z,8.93
2018-04-08T16:39:02.182Z,8.30
2018-04-08T16:41:31.983Z,8.27
2018-04-08T16:44:01.810Z,8.93
2018-04-08T16:46:31.613Z,8.43
2018-04-08T16:49:01.434Z,8.20
2018-04-08T16:51:31.251Z,9.73
2018-04-08T16:54:01.057Z,8.37
2018-04-08T16:56:30.855Z,8.50
2018-04-08T16:59:00.674Z,9.77
2018-04-08T17:01:30.464Z,9.40
2018-04-08T17:04:00.267Z,8.17
2018-04-08T17:06:30.059Z,9.67
2018-04-08T17:09:00.638Z,10.40
2018-04-08T17:11:30.453Z,15.07
2018-04-08T17:14:00.255Z,9.73
2018-04-08T17:16:30.053Z,9.03
2018-04-08T17:18:59.849Z,10.13
2018-04-08T17:21:30.421Z,10.77
2018-04-08T17:24:00.242Z,10.83
2018-04-08T17:26:30.051Z,9.50
2018-04-08T17:28:59.869Z,10.30
2018-04-08T17:31:29.684Z,11.23
2018-04-08T17:33:59.489Z,10.13
2018-04-08T17:36:29.294Z,10.40
2018-04-08T17:38:59.118Z,10.67
2018-04-08T17:41:28.931Z,10.57
2018-04-08T17:43:58.746Z,10.43
2018-04-08T17:46:28.554Z,10.57
2018-04-08T17:48:58.359Z,9.23
2018-04-08T17:51:28.157Z,11.47
2018-04-08T17:53:57.989Z,11.70
2018-04-08T17:56:27.801Z,10.90
2018-04-08T17:58:57.622Z,11.93
2018-04-08T18:01:27.436Z,11.43
2018-04-08T18:03:57.260Z,12.70
2018-04-08T18:06:27.111Z,10.53
2018-04-08T18:08:57.681Z,11.80
2018-04-08T18:11:27.501Z,12.03
2018-04-08T18:13:57.316Z,12.73
2018-04-08T18:16:27.125Z,12.60
2018-04-08T18:18:56.947Z,12.80
2018-04-08T18:21:26.759Z,12.17
2018-04-08T18:23:56.563Z,12.77
2018-04-08T18:26:26.383Z,13.27
2018-04-08T18:28:56.195Z,13.20
2018-04-08T18:31:26.020Z,12.90
2018-04-08T18:33:56.048Z,14.17
2018-04-08T18:36:26.643Z,12.57
2018-04-08T18:38:56.456Z,13.00
2018-04-08T18:41:26.282Z,15.03
2018-04-08T18:43:56.114Z,12.70
2018-04-08T18:46:26.706Z,13.67
2018-04-08T18:48:56.521Z,14.37
2018-04-08T18:51:26.395Z,13.60
2018-04-08T18:53:56.164Z,13.60
2018-04-08T18:56:25.979Z,13.77
2018-04-08T18:58:55.800Z,13.53
2018-04-08T19:01:25.622Z,13.63
2018-04-08T19:03:56.198Z,13.43
2018-04-08T19:06:26.239Z,13.87
2018-04-08T19:08:56.251Z,13.10
2018-04-08T19:11:26.122Z,12.70
2018-04-08T19:13:55.962Z,13.93
2018-04-08T19:16:25.777Z,14.67
2018-04-08T19:18:55.653Z,12.93
2018-04-08T19:21:25.514Z,14.43
2018-04-08T19:23:55.317Z,14.53
2018-04-08T19:26:25.144Z,14.00
2018-04-08T19:28:54.946Z,14.73
2018-04-08T19:31:24.819Z,12.77
2018-04-08T19:33:55.388Z,13.10
2018-04-08T19:36:25.299Z,13.17
2018-04-08T19:38:55.198Z,12.57
2018-04-08T19:41:25.000Z,12.70
2018-04-08T19:43:55.188Z,11.80
2018-04-08T19:46:25.786Z,12.77
2018-04-08T19:48:56.328Z,12.50
2018-04-08T19:51:26.966Z,12.43
2018-04-08T19:53:56.814Z,12.67
2018-04-08T19:56:27.480Z,11.73
2018-04-08T19:58:58.131Z,12.43
2018-04-08T20:01:27.946Z,12.13
2018-04-08T20:03:57.771Z,12.27
2018-04-08T20:06:27.851Z,13.10
2018-04-08T20:08:57.647Z,12.23
2018-04-08T20:11:27.540Z,12.13
2018-04-08T20:13:57.329Z,12.10
2018-04-08T20:16:27.150Z,12.53
2018-04-08T20:18:57.067Z,12.40
2018-04-08T20:21:26.887Z,11.83
2018-04-08T20:23:56.735Z,12.27
2018-04-08T20:26:26.546Z,11.73
2018-04-08T20:28:56.378Z,12.40
2018-04-08T20:31:26.189Z,12.27
2018-04-08T20:33:56.169Z,11.80
2018-04-08T20:36:26.740Z,12.10
2018-04-08T20:38:56.549Z,12.67
2018-04-08T20:41:26.366Z,12.40
2018-04-08T20:43:56.193Z,12.17
2018-04-08T20:46:25.993Z,13.97
2018-04-08T20:48:56.670Z,13.00
2018-04-08T20:51:27.249Z,12.27
2018-04-08T20:53:57.087Z,13.23
2018-04-08T20:56:26.912Z,13.37
2018-04-08T20:58:57.612Z,12.40
2018-04-08T21:01:27.414Z,12.97
2018-04-08T21:03:57.340Z,12.40
2018-04-08T21:06:27.377Z,12.30
2018-04-08T21:08:57.246Z,13.57
2018-04-08T21:11:27.041Z,13.13
2018-04-08T21:13:56.856Z,12.60
2018-04-08T21:16:26.658Z,13.90
2018-04-08T21:18:56.468Z,12.87
2018-04-08T21:21:27.042Z,12.83
2018-04-08T21:23:56.918Z,13.13
2018-04-08T21:26:26.881Z,14.03
2018-04-08T21:28:56.674Z,13.87
2018-04-08T21:31:26.481Z,14.20
2018-04-08T21:33:56.296Z,13.20
2018-04-08T21:36:26.100Z,14.50
2018-04-08T21:38:55.918Z,13.53
2018-04-08T21:41:25.731Z,13.83
2018-04-08T21:43:55.549Z,14.90
2018-04-08T21:46:25.355Z,15.57
2018-04-08T21:48:55.181Z,15.10
2018-04-08T21:51:25.033Z,14.13
2018-04-08T21:53:54.831Z,14.43
2018-04-08T21:56:24.632Z,15.20
2018-04-08T21:58:54.457Z,14.97
2018-04-08T22:01:24.265Z,15.73
2018-04-08T22:03:54.091Z,14.23
2018-04-08T22:06:23.909Z,16.17
2018-04-08T22:08:53.712Z,16.07
2018-04-08T22:11:23.531Z,16.50
2018-04-08T22:13:54.111Z,17.27
2018-04-08T22:16:23.926Z,17.80
2018-04-08T22:18:53.738Z,17.83
2018-04-08T22:21:23.549Z,17.73
2018-04-08T22:23:53.365Z,18.67
2018-04-08T22:26:23.954Z,18.17
2018-04-08T22:28:54.528Z,18.80
2018-04-08T22:31:24.337Z,18.43
2018-04-08T22:33:54.151Z,18.50
2018-04-08T22:36:23.967Z,19.77
2018-04-08T22:38:53.777Z,20.80
2018-04-08T22:41:23.609Z,19.83
2018-04-08T22:43:53.422Z,21.27
2018-04-08T22:46:23.241Z,21.43
2018-04-08T22:48:53.054Z,22.30
2018-04-08T22:51:22.882Z,22.53
2018-04-08T22:53:52.694Z,21.50
2018-04-08T22:56:23.279Z,22.93
2018-04-08T22:58:53.082Z,22.53
2018-04-08T23:01:22.917Z,22.80
2018-04-08T23:03:52.742Z,23.37
2018-04-08T23:06:22.554Z,22.37
2018-04-08T23:08:52.366Z,23.80
2018-04-08T23:11:22.214Z,23.70
2018-04-08T23:13:52.796Z,23.87
2018-04-08T23:16:22.622Z,24.37
2018-04-08T23:18:52.439Z,22.90
2018-04-08T23:21:22.255Z,24.53
2018-04-08T23:23:52.071Z,25.67
2018-04-08T23:26:21.926Z,27.30
2018-04-08T23:28:51.906Z,27.50
2018-04-08T23:31:21.765Z,26.97
2018-04-08T23:33:51.569Z,27.10
2018-04-08T23:36:21.426Z,27.60
2018-04-08T23:38:51.230Z,26.73
2018-04-08T23:41:21.072Z,27.63
2018-04-08T23:43:50.883Z,26.77
2018-04-08T23:46:20.705Z,26.73
2018-04-08T23:48:51.284Z,28.67
2018-04-08T23:51:21.139Z,28.27
2018-04-08T23:53:50.970Z,28.83
2018-04-08T23:56:21.554Z,28.27
2018-04-08T23:58:51.386Z,28.43
